Time;durP1;ratioP1;P1;durP2;ratioP2;P2;SDS_P1;SDS_P2;PMS_P1;PMS_P2;Temp;Humidity;BMP_temperature;BMP_pressure;BME280_temperature;BME280_humidity;BME280_pressure;Samples;Min_cycle;Max_cycle;Signal;HPM_P1;HPM_P2
2021/08/04 00:01:36;;;;;;;24.92;7.08;;;;;;;15.93;75.20;98726.44;2210674;81;21043;-62
2021/08/04 00:04:37;;;;;;;24.45;7.85;;;;;;;15.81;75.27;98728.78;2210440;81;21024;-62
2021/08/04 00:07:37;;;;;;;19.60;6.47;;;;;;;15.85;75.35;98724.09;2211645;80;21001;-62
2021/08/04 00:10:38;;;;;;;21.40;5.80;;;;;;;15.85;75.09;98719.63;2220882;80;21024;-59
2021/08/04 00:13:38;;;;;;;17.12;4.97;;;;;;;15.86;75.17;98722.63;2220796;80;20996;-61
2021/08/04 00:16:39;;;;;;;16.90;5.33;;;;;;;15.94;75.46;98719.33;2220556;80;20981;-64
2021/08/04 00:19:39;;;;;;;17.98;5.25;;;;;;;15.96;75.25;98715.23;2220737;80;21515;-62
2021/08/04 00:22:40;;;;;;;18.77;5.90;;;;;;;15.97;75.13;98711.63;2220344;80;21012;-59
2021/08/04 00:25:40;;;;;;;25.92;6.80;;;;;;;15.99;75.15;98721.57;2220701;80;20956;-62
2021/08/04 00:28:40;;;;;;;20.75;6.33;;;;;;;15.92;75.31;98712.84;2220842;80;20968;-62
2021/08/04 00:31:41;;;;;;;18.07;5.42;;;;;;;15.88;75.12;98713.25;2220951;80;20944;-59
2021/08/04 00:34:41;;;;;;;17.70;5.70;;;;;;;15.80;75.53;98713.87;2220825;80;21016;-63
2021/08/04 00:37:42;;;;;;;22.90;7.05;;;;;;;15.80;75.44;98716.52;2220931;80;20995;-63
2021/08/04 00:40:42;;;;;;;18.45;5.40;;;;;;;15.74;75.43;98715.20;2220793;80;20972;-63
2021/08/04 00:43:43;;;;;;;19.90;5.35;;;;;;;15.72;75.25;98707.06;2220652;80;20937;-60
2021/08/04 00:46:44;;;;;;;15.78;5.22;;;;;;;15.68;75.42;98703.00;2220172;80;21016;-61
2021/08/04 00:49:44;;;;;;;16.05;5.10;;;;;;;15.63;75.41;98706.50;2220220;80;21020;-62
2021/08/04 00:52:45;;;;;;;18.80;5.45;;;;;;;15.58;75.93;98699.78;2220520;80;21539;-59
2021/08/04 00:55:45;;;;;;;16.85;5.00;;;;;;;15.52;76.00;98698.16;2220918;80;21263;-62
2021/08/04 00:58:46;;;;;;;14.75;4.70;;;;;;;15.46;75.78;98691.58;2220753;80;21027;-58
2021/08/04 01:01:47;;;;;;;16.90;5.42;;;;;;;15.47;76.01;98696.38;2220764;80;21011;-63
2021/08/04 01:04:48;;;;;;;16.70;5.20;;;;;;;15.46;75.92;98701.30;2220708;80;21044;-63
2021/08/04 01:07:48;;;;;;;17.90;5.40;;;;;;;15.52;76.21;98702.95;2220395;80;21516;-62
2021/08/04 01:10:49;;;;;;;14.23;5.17;;;;;;;15.55;76.06;98704.02;2220819;80;20953;-60
2021/08/04 01:13:49;;;;;;;18.05;5.15;;;;;;;15.58;76.09;98709.53;2220996;80;21003;-61
2021/08/04 01:16:50;;;;;;;19.20;5.12;;;;;;;15.54;75.86;98702.82;2221061;80;21024;-66
2021/08/04 01:19:50;;;;;;;17.20;4.97;;;;;;;15.50;76.19;98700.94;2220852;80;21008;-64
2021/08/04 01:22:51;;;;;;;13.50;4.62;;;;;;;15.53;76.68;98709.92;2220787;80;20960;-63
2021/08/04 01:25:51;;;;;;;11.10;4.00;;;;;;;15.50;76.14;98712.83;2221111;80;21000;-58
2021/08/04 01:28:51;;;;;;;12.58;4.00;;;;;;;15.21;75.74;98716.08;2221084;80;21031;-61
2021/08/04 01:31:52;;;;;;;10.88;3.83;;;;;;;14.92;76.18;98711.83;2220778;80;21068;-64
2021/08/04 01:34:53;;;;;;;12.82;3.90;;;;;;;14.83;76.27;98709.94;2220943;80;20956;-63
2021/08/04 01:37:53;;;;;;;13.98;4.58;;;;;;;14.85;76.39;98704.05;2220986;80;21519;-65
2021/08/04 01:40:54;;;;;;;12.15;4.30;;;;;;;14.94;76.92;98703.78;2220994;80;20984;-68
2021/08/04 01:43:54;;;;;;;14.35;4.83;;;;;;;15.02;76.65;98699.55;2220599;80;20996;-60
2021/08/04 01:46:55;;;;;;;17.40;5.67;;;;;;;15.03;76.42;98697.77;2220956;80;20973;-60
2021/08/04 01:49:56;;;;;;;20.68;6.97;;;;;;;15.08;76.92;98692.92;2220445;80;21605;-62
2021/08/04 01:52:56;;;;;;;20.40;6.12;;;;;;;15.12;76.75;98692.20;2220815;80;21025;-61
2021/08/04 01:55:57;;;;;;;21.12;5.67;;;;;;;15.14;76.75;98696.88;2221076;80;21016;-64
2021/08/04 01:58:57;;;;;;;19.57;6.00;;;;;;;15.15;76.91;98694.59;2221084;80;20984;-64
2021/08/04 02:01:57;;;;;;;16.55;4.42;;;;;;;15.25;76.70;98695.51;2221220;80;20941;-62
2021/08/04 02:04:58;;;;;;;15.05;4.97;;;;;;;15.09;76.32;98705.18;2220857;80;20981;-60
2021/08/04 02:07:58;;;;;;;17.37;5.70;;;;;;;14.85;77.59;98727.31;2220723;80;20980;-61
2021/08/04 02:10:59;;;;;;;17.40;5.47;;;;;;;14.87;77.96;98718.80;2220389;80;21012;-61
2021/08/04 02:13:59;;;;;;;17.23;5.62;;;;;;;14.91;77.97;98700.89;2220425;80;21519;-60
2021/08/04 02:17:00;;;;;;;15.43;5.37;;;;;;;15.06;78.00;98716.00;2220460;80;21040;-61
2021/08/04 02:20:00;;;;;;;15.60;5.20;;;;;;;15.14;77.93;98709.62;2220705;80;20974;-66
2021/08/04 02:23:00;;;;;;;18.00;5.62;;;;;;;15.19;78.03;98699.98;2220651;80;20941;-65
2021/08/04 02:26:01;;;;;;;14.03;4.95;;;;;;;15.28;78.15;98707.14;2220383;80;20976;-58
2021/08/04 02:29:01;;;;;;;19.75;6.05;;;;;;;15.35;78.19;98698.23;2220453;80;20972;-60
2021/08/04 02:32:02;;;;;;;18.70;5.40;;;;;;;15.41;78.49;98697.72;2220514;80;21007;-61
2021/08/04 02:35:02;;;;;;;17.37;5.33;;;;;;;15.50;78.13;98694.33;2220566;80;21458;-60
2021/08/04 02:38:03;;;;;;;16.52;5.50;;;;;;;15.53;78.41;98687.92;2220470;80;21003;-62
2021/08/04 02:41:03;;;;;;;17.00;5.67;;;;;;;15.51;78.43;98684.09;2220363;80;20992;-62
2021/08/04 02:44:04;;;;;;;16.82;5.20;;;;;;;15.51;78.45;98681.94;2220362;80;21058;-59
2021/08/04 02:47:04;;;;;;;16.02;4.90;;;;;;;15.52;78.66;98671.23;2220669;80;20949;-61
2021/08/04 02:50:05;;;;;;;17.23;5.10;;;;;;;15.54;78.78;98668.00;2220064;80;21048;-59
2021/08/04 02:53:06;;;;;;;15.00;4.83;;;;;;;15.61;79.05;98659.53;2220349;80;21667;-60
2021/08/04 02:56:06;;;;;;;15.20;4.53;;;;;;;15.59;79.37;98650.42;2220587;80;20972;-62
2021/08/04 02:59:07;;;;;;;29.30;12.90;;;;;;;15.60;78.89;98652.07;2220679;80;20976;-61
2021/08/04 03:02:07;;;;;;;21.25;8.30;;;;;;;15.59;78.84;98652.56;2220785;80;20964;-60
2021/08/04 03:05:08;;;;;;;27.50;11.70;;;;;;;15.62;78.91;98652.80;2220664;80;20992;-58
2021/08/04 03:08:08;;;;;;;14.63;4.92;;;;;;;15.66;79.66;98646.75;2220303;80;20968;-63
2021/08/04 03:11:09;;;;;;;17.85;5.62;;;;;;;15.63;79.35;98643.91;2210110;81;21503;-59
2021/08/04 03:14:09;;;;;;;15.93;5.12;;;;;;;15.64;79.26;98641.59;2210119;81;21008;-59
2021/08/04 03:17:09;;;;;;;17.95;5.30;;;;;;;15.66;79.22;98632.21;2210403;81;20965;-61
2021/08/04 03:20:10;;;;;;;15.05;4.72;;;;;;;15.66;79.14;98639.67;2210074;81;21048;-59
2021/08/04 03:23:10;;;;;;;17.42;4.67;;;;;;;15.70;79.19;98645.06;2210354;81;21007;-60
2021/08/04 03:26:11;;;;;;;14.87;5.00;;;;;;;15.74;79.21;98640.34;2210168;81;20934;-62
2021/08/04 03:29:11;;;;;;;16.17;5.70;;;;;;;15.75;79.26;98640.70;2210206;81;20976;-62
2021/08/04 03:32:12;;;;;;;18.98;4.90;;;;;;;15.73;79.42;98654.05;2210115;81;21522;-66
2021/08/04 03:35:12;;;;;;;15.45;4.50;;;;;;;15.74;79.39;98659.67;2209747;81;21527;-61
2021/08/04 03:38:13;;;;;;;15.68;4.80;;;;;;;15.66;79.37;98662.61;2210395;81;21000;-63
2021/08/04 03:41:13;;;;;;;18.23;4.95;;;;;;;15.72;79.47;98666.08;2210493;81;21033;-65
2021/08/04 03:44:14;;;;;;;15.93;4.97;;;;;;;15.83;79.36;98659.43;2210375;81;20993;-59
2021/08/04 03:47:14;;;;;;;15.60;4.97;;;;;;;15.96;79.08;98667.16;2210265;81;20992;-63
2021/08/04 03:50:15;;;;;;;15.15;4.67;;;;;;;15.93;79.15;98671.36;2210226;81;20993;-66
2021/08/04 03:53:15;;;;;;;17.23;5.10;;;;;;;15.80;78.82;98672.06;2210662;81;21489;-62
2021/08/04 03:56:15;;;;;;;17.10;5.08;;;;;;;15.76;78.93;98676.75;2210575;81;21024;-66
2021/08/04 03:59:16;;;;;;;14.78;4.72;;;;;;;15.79;79.12;98675.66;2210607;81;21036;-64
2021/08/04 04:02:16;;;;;;;15.63;4.85;;;;;;;15.81;79.08;98685.15;2210395;81;21127;-64
2021/08/04 04:05:17;;;;;;;17.23;4.83;;;;;;;15.84;79.07;98683.56;2210466;81;20973;-59
2021/08/04 04:08:17;;;;;;;13.08;4.83;;;;;;;15.89;79.29;98692.45;2210295;81;21464;-66
2021/08/04 04:11:18;;;;;;;13.75;4.90;;;;;;;15.94;79.78;98702.13;2220417;80;21829;-63
2021/08/04 04:14:18;;;;;;;17.55;5.25;;;;;;;15.80;79.56;98707.76;2220613;80;21003;-64
2021/08/04 04:17:19;;;;;;;17.27;5.30;;;;;;;15.79;80.15;98717.51;2220594;80;21023;-65
2021/08/04 04:20:19;;;;;;;17.00;5.75;;;;;;;15.79;80.56;98717.51;2220572;80;21016;-61
2021/08/04 04:23:20;;;;;;;17.05;5.83;;;;;;;15.87;80.10;98712.39;2220925;80;20968;-60
2021/08/04 04:26:20;;;;;;;17.37;5.47;;;;;;;15.93;79.89;98701.31;2220812;80;20980;-60
2021/08/04 04:29:21;;;;;;;16.52;5.25;;;;;;;15.99;80.11;98709.20;2220619;80;21471;-62
2021/08/04 04:32:21;;;;;;;19.42;6.60;;;;;;;15.99;79.77;98697.30;2220765;80;21498;-60
2021/08/04 04:35:21;;;;;;;21.10;7.58;;;;;;;15.98;80.05;98698.27;2220788;80;21016;-59
2021/08/04 04:38:22;;;;;;;21.93;7.83;;;;;;;15.96;80.02;98712.58;2220806;80;20972;-60
2021/08/04 04:41:22;;;;;;;20.85;8.08;;;;;;;15.97;80.39;98703.69;2220908;80;20929;-62
2021/08/04 04:44:23;;;;;;;19.60;7.42;;;;;;;15.88;80.21;98709.28;2220767;80;20941;-58
2021/08/04 04:47:23;;;;;;;20.68;6.85;;;;;;;15.94;80.49;98712.22;2220816;80;20968;-58
2021/08/04 04:50:24;;;;;;;19.30;6.12;;;;;;;16.01;80.20;98712.55;2220185;80;21139;-66
2021/08/04 04:53:26;;;;;;;19.40;6.90;;;;;;;16.01;80.20;98712.55;2220671;80;21004;-65
2021/08/04 04:56:26;;;;;;;19.48;6.60;;;;;;;16.03;80.37;98721.67;2220740;80;21103;-60
2021/08/04 04:59:27;;;;;;;19.05;6.08;;;;;;;15.97;80.55;98732.28;2220460;80;21011;-59
2021/08/04 05:02:27;;;;;;;17.80;5.75;;;;;;;16.00;80.69;98732.02;2220612;80;20961;-60
2021/08/04 05:05:28;;;;;;;20.52;6.65;;;;;;;16.00;80.74;98733.34;2220779;80;20964;-59
2021/08/04 05:08:28;;;;;;;19.10;5.95;;;;;;;16.04;80.76;98738.73;2220200;80;21056;-58
2021/08/04 05:11:29;;;;;;;17.62;6.37;;;;;;;16.09;80.64;98740.98;2220276;80;21037;-61
2021/08/04 05:14:29;;;;;;;20.65;7.15;;;;;;;16.19;80.50;98739.72;2220657;80;21051;-59
2021/08/04 05:17:30;;;;;;;19.27;6.95;;;;;;;16.20;80.38;98746.20;2220792;80;20977;-59
2021/08/04 05:20:30;;;;;;;18.90;6.65;;;;;;;16.25;80.42;98740.03;2220910;80;20992;-58
2021/08/04 05:23:31;;;;;;;17.07;6.03;;;;;;;16.35;80.66;98746.70;2220427;80;20976;-60
2021/08/04 05:26:31;;;;;;;16.80;6.00;;;;;;;16.43;80.21;98748.67;2220789;80;20944;-59
2021/08/04 05:29:31;;;;;;;22.45;6.55;;;;;;;16.51;80.20;98749.36;2220567;80;21019;-58
2021/08/04 05:32:32;;;;;;;19.48;6.20;;;;;;;16.61;80.34;98762.97;2220595;80;21502;-60
2021/08/04 05:35:32;;;;;;;17.02;5.85;;;;;;;16.71;80.26;98751.09;2220602;80;21455;-60
2021/08/04 05:38:33;;;;;;;19.48;6.85;;;;;;;16.76;79.92;98744.06;2220629;80;20960;-58
2021/08/04 05:41:33;;;;;;;20.68;6.58;;;;;;;16.78;80.09;98736.34;2220881;80;20959;-63
2021/08/04 05:44:34;;;;;;;17.62;6.30;;;;;;;16.81;80.14;98737.88;2220610;80;20972;-59
2021/08/04 05:47:35;;;;;;;17.40;6.12;;;;;;;16.83;79.87;98753.14;2220416;80;21135;-59
2021/08/04 05:50:35;;;;;;;17.42;5.80;;;;;;;16.90;80.12;98750.33;2220272;80;21522;-64
2021/08/04 05:53:36;;;;;;;19.42;5.92;;;;;;;16.94;79.93;98772.94;2220266;80;21050;-58
2021/08/04 05:56:37;;;;;;;18.50;5.95;;;;;;;17.00;79.73;98787.95;2220588;80;20999;-58
2021/08/04 05:59:38;;;;;;;18.52;6.30;;;;;;;16.96;79.73;98790.84;2220763;80;21067;-57
2021/08/04 06:02:38;;;;;;;20.02;6.67;;;;;;;16.95;79.70;98769.31;2220550;80;20964;-59
2021/08/04 06:05:39;;;;;;;20.45;5.80;;;;;;;16.96;79.67;98763.02;2220594;80;21455;-59
2021/08/04 06:08:39;;;;;;;17.42;5.87;;;;;;;17.02;79.58;98766.12;2220546;80;20956;-59
2021/08/04 06:11:40;;;;;;;14.28;4.87;;;;;;;17.03;79.56;98758.03;2220200;80;21019;-62
2021/08/04 06:14:40;;;;;;;14.28;4.75;;;;;;;17.04;79.37;98754.88;2220853;80;20968;-59
2021/08/04 06:17:41;;;;;;;15.90;5.08;;;;;;;17.06;79.32;98749.80;2220851;80;20968;-58
2021/08/04 06:20:41;;;;;;;16.42;5.17;;;;;;;17.08;79.10;98737.27;2220301;80;21038;-63
2021/08/04 06:23:47;;;;;;;15.65;4.67;;;;;;;17.00;79.03;98737.11;2220505;80;21511;-58
2021/08/04 06:26:44;;;;;;;;;;;;;;;16.98;79.28;98737.72;2192926;80;20949;-61
2021/08/04 06:29:45;;;;;;;15.90;5.33;;;;;;;17.01;79.41;98731.31;2220478;80;20438;-59
2021/08/04 06:32:45;;;;;;;17.07;5.40;;;;;;;17.08;79.91;98732.44;2220429;80;20977;-60
2021/08/04 06:35:46;;;;;;;18.55;5.50;;;;;;;17.25;79.49;98738.38;2220662;80;21047;-59
2021/08/04 06:38:46;;;;;;;13.35;4.58;;;;;;;17.45;79.08;98747.19;2220796;80;20972;-64
2021/08/04 06:41:47;;;;;;;13.53;4.90;;;;;;;17.74;78.86;98749.02;2220432;80;21025;-63
2021/08/04 06:44:47;;;;;;;12.43;4.45;;;;;;;17.95;77.68;98744.05;2220592;80;21459;-62
2021/08/04 06:47:48;;;;;;;14.58;4.45;;;;;;;18.00;77.38;98743.11;2220354;80;20989;-62
2021/08/04 06:50:48;;;;;;;16.60;4.60;;;;;;;18.23;77.26;98742.31;2220077;80;21019;-61
2021/08/04 06:53:50;;;;;;;13.40;4.20;;;;;;;18.49;77.62;98740.33;2220388;80;20975;-59
2021/08/04 06:56:52;;;;;;;12.95;3.98;;;;;;;18.77;77.35;98743.81;2220369;80;21571;-60
2021/08/04 06:59:52;;;;;;;14.10;4.40;;;;;;;19.04;76.74;98742.98;2220667;80;21003;-59
2021/08/04 07:02:53;;;;;;;12.60;4.53;;;;;;;19.17;76.32;98737.30;2220372;80;21019;-63
2021/08/04 07:05:53;;;;;;;12.20;4.12;;;;;;;19.18;75.92;98738.16;2220778;80;20972;-63
2021/08/04 07:08:54;;;;;;;14.00;4.25;;;;;;;19.23;75.71;98743.02;2220516;80;21077;-61
2021/08/04 07:11:55;;;;;;;14.43;4.50;;;;;;;19.19;75.76;98745.98;2220337;80;21610;-58
2021/08/04 07:14:55;;;;;;;13.75;4.08;;;;;;;19.17;75.87;98746.61;2220404;80;21094;-66
2021/08/04 07:17:56;;;;;;;13.83;4.28;;;;;;;19.12;75.72;98741.40;2220803;80;21038;-63
2021/08/04 07:20:56;;;;;;;15.40;4.70;;;;;;;19.10;75.80;98749.53;2220703;80;20991;-60
2021/08/04 07:23:57;;;;;;;10.23;3.83;;;;;;;19.10;75.93;98747.38;2220516;80;20972;-59
2021/08/04 07:26:57;;;;;;;16.07;4.60;;;;;;;19.05;75.62;98754.47;2220573;80;21498;-62
2021/08/04 07:29:58;;;;;;;14.25;5.17;;;;;;;18.96;75.46;98751.36;2220723;80;20993;-60
2021/08/04 07:32:58;;;;;;;13.15;4.30;;;;;;;18.90;75.61;98750.14;2220714;80;21008;-65
2021/08/04 07:35:59;;;;;;;14.50;4.42;;;;;;;18.90;75.58;98744.00;2220745;80;20965;-62
2021/08/04 07:38:59;;;;;;;10.85;3.77;;;;;;;18.94;75.74;98750.19;2220861;80;20961;-68
2021/08/04 07:42:00;;;;;;;12.85;4.33;;;;;;;19.08;75.91;98757.30;2220550;80;21016;-58
2021/08/04 07:45:00;;;;;;;13.20;3.98;;;;;;;19.24;75.65;98764.61;2220745;80;20964;-61
2021/08/04 07:48:00;;;;;;;12.50;4.05;;;;;;;19.39;75.57;98768.42;2220616;80;21467;-62
2021/08/04 07:51:02;;;;;;;17.10;4.70;;;;;;;19.53;74.86;98770.55;2221106;80;21035;-67
2021/08/04 07:54:02;;;;;;;16.37;4.90;;;;;;;19.68;74.73;98770.88;2220941;80;20980;-61
2021/08/04 07:57:03;;;;;;;15.68;4.90;;;;;;;19.78;74.13;98769.42;2220413;80;21024;-64
2021/08/04 08:00:04;;;;;;;13.13;4.22;;;;;;;19.83;74.05;98768.52;2221141;80;21015;-66
2021/08/04 08:03:05;;;;;;;12.90;4.43;;;;;;;19.95;73.88;98768.27;2220675;80;21096;-60
2021/08/04 08:06:06;;;;;;;13.03;4.12;;;;;;;20.12;73.69;98761.24;2221095;80;21367;-65
2021/08/04 08:09:06;;;;;;;14.30;4.60;;;;;;;20.29;73.64;98764.34;2220583;80;20980;-60
2021/08/04 08:12:07;;;;;;;12.10;4.35;;;;;;;20.63;73.35;98755.54;2220848;80;21008;-60
2021/08/04 08:15:09;;;;;;;18.55;5.30;;;;;;;20.98;72.77;98753.69;2220611;80;21111;-63
2021/08/04 08:18:10;;;;;;;13.93;4.40;;;;;;;21.49;72.21;98752.78;2220639;80;21492;-61
2021/08/04 08:21:10;;;;;;;15.70;4.72;;;;;;;21.97;71.35;98744.47;2220797;80;21024;-61
2021/08/04 08:24:11;;;;;;;13.45;4.37;;;;;;;22.29;69.80;98750.23;2220563;80;20996;-61
2021/08/04 08:27:12;;;;;;;14.25;4.30;;;;;;;22.50;69.25;98744.89;2221010;80;21009;-61
2021/08/04 08:30:12;;;;;;;13.18;4.05;;;;;;;23.00;68.23;98748.16;2221083;80;20964;-61
2021/08/04 08:33:13;;;;;;;10.63;3.77;;;;;;;23.00;68.23;98748.16;2220937;80;21068;-62
2021/08/04 08:36:14;;;;;;;15.80;4.13;;;;;;;23.30;67.94;98751.02;2220881;80;21024;-63
2021/08/04 08:39:14;;;;;;;13.17;4.27;;;;;;;23.51;66.51;98741.84;2220834;80;21522;-64
2021/08/04 08:42:15;;;;;;;13.90;4.20;;;;;;;23.89;68.05;98750.94;2220758;80;21075;-60
2021/08/04 08:45:15;;;;;;;13.03;4.10;;;;;;;24.28;65.91;98748.05;2220484;80;21019;-59
2021/08/04 08:48:16;;;;;;;14.57;4.00;;;;;;;24.37;65.50;98742.09;2220943;80;21000;-63
2021/08/04 08:51:17;;;;;;;13.60;3.70;;;;;;;24.36;65.11;98737.22;2220443;80;21020;-60
2021/08/04 08:54:18;;;;;;;20.93;8.50;;;;;;;24.39;64.68;98738.70;2221168;80;21908;-59
2021/08/04 08:57:18;;;;;;;19.07;5.43;;;;;;;24.56;64.43;98741.52;2220792;80;20945;-61
2021/08/04 09:00:19;;;;;;;9.83;3.70;;;;;;;24.75;63.97;98740.66;2220444;80;21087;-59
2021/08/04 09:03:19;;;;;;;14.33;4.40;;;;;;;25.19;62.56;98739.72;2220803;80;21023;-58
2021/08/04 09:06:20;;;;;;;14.87;3.97;;;;;;;25.20;60.93;98738.71;2220936;80;21563;-60
2021/08/04 09:09:21;;;;;;;10.63;3.53;;;;;;;25.17;62.01;98728.36;2220552;80;21546;-58
2021/08/04 09:12:21;;;;;;;13.83;4.20;;;;;;;25.39;61.43;98730.56;2211691;80;21021;-59
2021/08/04 09:15:22;;;;;;;20.50;6.10;;;;;;;25.53;60.22;98730.68;2210560;81;21500;-59
2021/08/04 09:18:22;;;;;;;12.33;3.50;;;;;;;25.61;60.05;98727.87;2210652;81;21448;-59
2021/08/04 09:21:24;;;;;;;9.07;3.20;;;;;;;25.98;60.05;98727.24;2210632;81;20953;-59
2021/08/04 09:24:25;;;;;;;11.15;3.30;;;;;;;25.91;58.36;98727.70;2210009;81;21627;-59
2021/08/04 09:27:26;;;;;;;16.27;4.23;;;;;;;26.05;58.76;98727.33;2211024;81;21020;-59
2021/08/04 09:30:28;;;;;;;15.47;4.17;;;;;;;26.21;58.08;98728.36;2210363;81;20997;-59
2021/08/04 09:33:29;;;;;;;10.25;3.35;;;;;;;26.32;57.40;98733.71;2210266;81;21037;-59
2021/08/04 09:36:29;;;;;;;8.67;3.10;;;;;;;26.31;57.66;98737.94;2210612;81;20945;-59
2021/08/04 09:39:31;;;;;;;9.13;3.27;;;;;;;26.14;55.99;98731.52;2210734;81;21049;-59
2021/08/04 09:42:31;;;;;;;8.55;3.15;;;;;;;25.72;56.06;98724.66;2210248;81;21810;-59
2021/08/04 09:45:32;;;;;;;12.07;3.60;;;;;;;25.40;56.31;98726.87;2210664;81;20969;-59
2021/08/04 09:48:33;;;;;;;11.07;3.70;;;;;;;25.12;57.36;98721.38;2210774;81;20961;-61
2021/08/04 09:51:34;;;;;;;14.43;3.73;;;;;;;24.90;56.68;98728.05;2210200;81;21040;-60
2021/08/04 09:54:34;;;;;;;9.10;3.33;;;;;;;24.76;57.67;98728.09;2210496;81;21536;-59
2021/08/04 09:57:35;;;;;;;9.77;3.70;;;;;;;24.73;57.83;98731.98;2210549;81;21567;-61
2021/08/04 10:00:35;;;;;;;11.53;3.47;;;;;;;24.72;57.64;98729.81;2210631;81;20961;-59
2021/08/04 10:03:36;;;;;;;12.77;3.63;;;;;;;24.76;58.38;98728.09;2210374;81;21032;-59
2021/08/04 10:06:37;;;;;;;9.58;3.62;;;;;;;25.00;58.08;98727.76;2210237;81;21123;-60
2021/08/04 10:09:38;;;;;;;10.13;3.70;;;;;;;25.24;57.24;98719.02;2210572;81;20989;-59
2021/08/04 10:12:39;;;;;;;11.57;3.77;;;;;;;25.47;56.91;98716.17;2219148;80;21554;-59
2021/08/04 10:15:41;;;;;;;11.13;3.40;;;;;;;25.57;56.81;98715.85;2220881;80;20976;-59
2021/08/04 10:18:42;;;;;;;8.30;3.40;;;;;;;25.60;55.70;98706.06;2190290;80;20964;-59
2021/08/04 10:21:43;;;;;;;11.80;3.58;;;;;;;25.46;56.00;98713.68;2220653;80;21559;-59
2021/08/04 10:24:43;;;;;;;10.83;3.80;;;;;;;25.29;56.34;98715.78;2220666;80;21011;-59
2021/08/04 10:27:44;;;;;;;8.83;3.30;;;;;;;25.18;56.51;98711.73;2220901;80;21529;-59
2021/08/04 10:30:45;;;;;;;10.83;3.60;;;;;;;24.99;55.46;98711.34;2221058;80;21011;-63
2021/08/04 10:33:45;;;;;;;11.57;3.60;;;;;;;24.85;57.58;98713.02;2220850;80;21029;-58
2021/08/04 10:36:46;;;;;;;11.93;3.67;;;;;;;24.92;56.94;98712.29;2220559;80;21048;-59
2021/08/04 10:39:47;;;;;;;11.07;4.30;;;;;;;24.96;57.04;98710.38;2220680;80;21068;-61
2021/08/04 10:42:47;;;;;;;8.27;3.47;;;;;;;24.93;56.72;98716.12;2221142;80;21031;-59
2021/08/04 10:45:48;;;;;;;12.93;3.70;;;;;;;24.70;56.21;98717.61;2220855;80;21032;-59
2021/08/04 10:48:49;;;;;;;13.20;3.90;;;;;;;24.21;56.85;98715.80;2220662;80;20976;-59
2021/08/04 10:51:50;;;;;;;11.38;4.42;;;;;;;23.79;56.25;98719.02;2220401;80;21511;-59
2021/08/04 10:54:51;;;;;;;13.63;4.33;;;;;;;23.38;57.37;98726.89;2220536;80;21075;-58
2021/08/04 10:57:51;;;;;;;11.17;3.87;;;;;;;23.07;58.38;98733.58;2221066;80;20969;-61
2021/08/04 11:00:52;;;;;;;11.83;3.77;;;;;;;22.84;58.96;98729.88;2220745;80;20968;-59
2021/08/04 11:03:53;;;;;;;14.03;3.87;;;;;;;22.56;58.85;98721.98;2220852;80;21032;-59
2021/08/04 11:06:53;;;;;;;13.83;4.40;;;;;;;22.23;59.37;98716.20;2220917;80;20937;-64
2021/08/04 11:09:56;;;;;;;11.90;4.27;;;;;;;21.88;60.47;98715.62;2221186;80;20964;-63
2021/08/04 11:12:56;;;;;;;13.75;4.22;;;;;;;21.58;61.96;98727.81;2211528;80;21574;-59
2021/08/04 11:15:57;;;;;;;15.90;4.30;;;;;;;21.24;62.67;98747.42;2210888;81;21037;-60
2021/08/04 11:18:57;;;;;;;15.28;4.62;;;;;;;20.94;63.29;98736.34;2211051;81;20980;-59
2021/08/04 11:21:57;;;;;;;17.60;5.20;;;;;;;20.63;64.21;98737.36;2210366;81;20981;-59
2021/08/04 11:24:58;;;;;;;13.83;4.80;;;;;;;20.39;65.36;98745.59;2210874;81;20961;-59
2021/08/04 11:27:58;;;;;;;15.98;4.50;;;;;;;20.19;66.66;98745.80;2210742;81;21038;-59
2021/08/04 11:30:59;;;;;;;17.73;5.10;;;;;;;19.96;68.00;98762.79;2210606;81;20981;-59
2021/08/04 11:34:03;;;;;;;12.23;4.00;;;;;;;19.63;68.42;98765.66;2210488;81;21491;-59
2021/08/04 11:37:02;;;;;;;15.05;4.12;;;;;;;19.21;68.02;98765.27;2189014;81;20985;-59
2021/08/04 11:40:05;;;;;;;17.05;4.75;;;;;;;18.92;68.62;98746.00;2210356;81;21001;-58
2021/08/04 11:43:05;;;;;;;13.80;4.35;;;;;;;18.82;68.00;98753.98;2210307;81;20992;-59
2021/08/04 11:46:06;;;;;;;14.70;4.35;;;;;;;18.86;67.57;98758.02;2210171;81;21028;-58
2021/08/04 11:49:07;;;;;;;12.30;4.22;;;;;;;18.94;67.98;98744.05;2210154;81;21030;-61
2021/08/04 11:52:08;;;;;;;11.28;4.08;;;;;;;19.15;68.50;98741.95;2210438;81;20977;-59
2021/08/04 11:55:10;;;;;;;12.00;3.70;;;;;;;19.30;68.51;98742.75;2210503;81;20965;-61
2021/08/04 11:58:10;;;;;;;18.00;4.30;;;;;;;19.43;68.66;98755.67;2210874;81;21456;-59
2021/08/04 12:01:11;;;;;;;17.70;5.85;;;;;;;19.59;69.30;98750.99;2210922;81;20965;-58
2021/08/04 12:04:11;;;;;;;23.15;8.30;;;;;;;19.71;68.97;98754.59;2210586;81;20945;-61
2021/08/04 12:07:12;;;;;;;24.75;8.93;;;;;;;19.84;68.98;98747.58;2210467;81;21005;-59
2021/08/04 12:10:12;;;;;;;18.10;5.60;;;;;;;20.06;69.04;98742.23;2210415;81;21028;-61
2021/08/04 12:13:13;;;;;;;15.20;5.08;;;;;;;20.40;68.87;98736.11;2210087;80;20985;-61
2021/08/04 12:16:14;;;;;;;15.70;4.72;;;;;;;20.80;69.06;98738.30;2210452;81;21460;-59
2021/08/04 12:19:14;;;;;;;14.05;4.47;;;;;;;21.27;68.19;98735.08;2210635;81;21088;-59
2021/08/04 12:22:15;;;;;;;11.25;3.77;;;;;;;21.62;67.67;98732.64;2210853;81;20984;-61
2021/08/04 12:25:16;;;;;;;13.40;4.30;;;;;;;21.97;65.86;98729.27;2210712;81;20968;-66
2021/08/04 12:28:17;;;;;;;13.38;3.72;;;;;;;22.23;65.62;98722.06;2210557;81;21052;-61
2021/08/04 12:31:17;;;;;;;32.57;16.57;;;;;;;22.69;65.13;98720.91;2210620;81;21583;-67
2021/08/04 12:34:17;;;;;;;33.93;14.67;;;;;;;23.06;65.28;98722.06;2210637;81;20961;-62
2021/08/04 12:37:18;;;;;;;11.87;3.50;;;;;;;23.11;64.08;98717.03;2210770;81;20973;-64
2021/08/04 12:40:18;;;;;;;9.43;3.10;;;;;;;23.16;62.00;98717.34;2210803;81;20953;-60
2021/08/04 12:43:19;;;;;;;10.97;3.50;;;;;;;23.11;61.67;98713.02;2210767;81;20989;-65
2021/08/04 12:46:19;;;;;;;8.13;3.10;;;;;;;23.05;61.90;98710.20;2210582;81;21048;-62
2021/08/04 12:49:22;;;;;;;11.07;3.60;;;;;;;23.18;62.38;98712.64;2210620;81;21095;-59
2021/08/04 12:52:22;;;;;;;8.35;2.90;;;;;;;23.53;62.68;98714.41;2188529;81;21080;-59
2021/08/04 12:55:23;;;;;;;6.97;2.50;;;;;;;23.93;61.20;98706.72;2210636;81;20938;-60
2021/08/04 12:58:24;;;;;;;8.78;2.92;;;;;;;24.09;56.84;98711.89;2210394;81;20977;-64
2021/08/04 13:01:24;;;;;;;6.43;3.20;;;;;;;24.29;57.14;98714.04;2210454;81;21047;-64
2021/08/04 13:04:25;;;;;;;11.80;3.57;;;;;;;24.72;56.61;98715.55;2210802;81;20965;-62
2021/08/04 13:07:26;;;;;;;11.03;3.57;;;;;;;25.56;56.33;98700.27;2210621;81;21334;-62
2021/08/04 13:10:27;;;;;;;11.97;4.30;;;;;;;25.76;55.46;98692.37;2210288;81;21110;-64
2021/08/04 13:13:27;;;;;;;13.33;4.23;;;;;;;25.91;56.25;98692.26;2219380;80;21565;-60
2021/08/04 13:16:27;;;;;;;14.97;5.40;;;;;;;25.67;56.53;98695.39;2220969;80;20996;-60
2021/08/04 13:19:28;;;;;;;17.97;6.10;;;;;;;25.47;54.44;98693.35;2221072;80;20967;-60
2021/08/04 13:22:28;;;;;;;18.70;6.27;;;;;;;25.02;56.14;98693.52;2220976;80;20996;-61
2021/08/04 13:25:30;;;;;;;18.77;5.70;;;;;;;24.80;56.50;98691.32;2220763;80;21016;-64
2021/08/04 13:28:30;;;;;;;18.80;6.83;;;;;;;24.79;56.54;98696.88;2220707;80;21032;-60
2021/08/04 13:31:31;;;;;;;18.17;6.07;;;;;;;24.62;56.26;98697.08;2220752;80;21047;-60
2021/08/04 13:34:31;;;;;;;17.33;5.90;;;;;;;24.34;57.05;98698.25;2221032;80;20968;-65
2021/08/04 13:37:32;;;;;;;17.67;7.13;;;;;;;24.11;57.80;98705.05;2220868;80;20999;-59
2021/08/04 13:40:32;;;;;;;18.60;6.67;;;;;;;23.97;56.88;98694.11;2220869;80;21027;-61
2021/08/04 13:43:33;;;;;;;18.10;6.60;;;;;;;23.86;57.01;98699.42;2220899;80;21479;-60
2021/08/04 13:46:33;;;;;;;19.00;6.77;;;;;;;23.60;58.16;98701.62;2220897;80;21458;-62
2021/08/04 13:49:34;;;;;;;18.20;6.97;;;;;;;23.49;57.93;98705.58;2220731;80;21055;-59
2021/08/04 13:52:34;;;;;;;18.63;7.00;;;;;;;23.20;59.26;98706.28;2220885;80;20965;-60
2021/08/04 13:55:35;;;;;;;19.53;7.70;;;;;;;23.11;59.67;98698.82;2220979;80;21033;-59
2021/08/04 13:58:35;;;;;;;18.10;7.33;;;;;;;23.12;59.97;98704.51;2220856;80;21008;-61
2021/08/04 14:01:35;;;;;;;21.23;7.90;;;;;;;22.82;60.14;98701.12;2220347;80;21027;-60